createdAt,value
2018-10-21T00:00:52.702Z,11.50
2018-10-21T00:01:52.680Z,11.36
2018-10-21T00:02:52.655Z,11.39
2018-10-21T00:03:52.633Z,11.39
2018-10-21T00:04:52.608Z,11.31
2018-10-21T00:05:52.586Z,11.28
2018-10-21T00:06:52.561Z,11.41
2018-10-21T00:07:52.540Z,11.25
2018-10-21T00:08:52.514Z,11.34
2018-10-21T00:09:52.488Z,11.27
2018-10-21T00:10:52.465Z,11.27
2018-10-21T00:11:52.442Z,11.28
2018-10-21T00:12:52.417Z,11.24
2018-10-21T00:13:52.394Z,11.20
2018-10-21T00:14:52.380Z,11.19
2018-10-21T00:15:52.347Z,11.14
2018-10-21T00:16:52.322Z,11.06
2018-10-21T00:17:53.050Z,11.11
2018-10-21T00:18:52.275Z,11.14
2018-10-21T00:19:52.252Z,11.10
2018-10-21T00:20:52.227Z,11.09
2018-10-21T00:21:52.204Z,11.09
2018-10-21T00:22:52.179Z,10.98
2018-10-21T00:23:52.156Z,11.02
2018-10-21T00:24:52.132Z,11.01
2018-10-21T00:25:52.109Z,11.03
2018-10-21T00:26:52.085Z,10.99
2018-10-21T00:27:52.063Z,11.01
2018-10-21T00:28:52.037Z,10.94
2018-10-21T00:29:52.015Z,10.94
2018-10-21T00:30:51.990Z,10.86
2018-10-21T00:31:51.967Z,10.91
2018-10-21T00:32:51.941Z,10.81
2018-10-21T00:33:52.668Z,10.80
2018-10-21T00:34:51.895Z,10.84
2018-10-21T00:35:51.871Z,10.76
2018-10-21T00:36:51.846Z,10.63
2018-10-21T00:37:51.823Z,10.65
2018-10-21T00:38:51.799Z,10.59
2018-10-21T00:39:51.776Z,10.52
2018-10-21T00:40:51.752Z,10.42
2018-10-21T00:41:51.729Z,10.39
2018-10-21T00:42:51.705Z,10.46
2018-10-21T00:43:51.682Z,10.40
2018-10-21T00:44:51.657Z,10.36
2018-10-21T00:45:51.632Z,10.30
2018-10-21T00:46:51.611Z,10.19
2018-10-21T00:47:51.592Z,10.17
2018-10-21T00:48:51.561Z,10.09
2018-10-21T00:49:51.537Z,10.17
2018-10-21T00:50:51.515Z,10.01
2018-10-21T00:51:51.493Z,10.00
2018-10-21T00:52:51.466Z,9.93
2018-10-21T00:53:51.443Z,10.09
2018-10-21T00:54:51.418Z,10.24
2018-10-21T00:55:52.896Z,10.26
2018-10-21T00:56:51.370Z,10.26
2018-10-21T00:57:51.347Z,10.32
2018-10-21T00:58:51.323Z,10.26
2018-10-21T00:59:51.302Z,10.25
2018-10-21T01:00:51.275Z,10.25
2018-10-21T01:01:51.251Z,10.10
2018-10-21T01:02:51.227Z,9.78
2018-10-21T01:03:51.206Z,9.85
2018-10-21T01:04:51.179Z,9.88
2018-10-21T01:05:51.155Z,9.85
2018-10-21T01:06:51.131Z,9.96
2018-10-21T01:07:51.107Z,9.91
2018-10-21T01:08:51.083Z,9.93
2018-10-21T01:09:51.059Z,9.89
2018-10-21T01:10:51.036Z,9.86
2018-10-21T01:11:51.011Z,9.86
2018-10-21T01:12:50.991Z,9.83
2018-10-21T01:13:50.962Z,9.83
2018-10-21T01:14:50.939Z,9.85
2018-10-21T01:15:50.915Z,9.82
2018-10-21T01:16:50.889Z,9.71
2018-10-21T01:17:50.865Z,9.67
2018-10-21T01:18:50.845Z,9.70
2018-10-21T01:19:50.822Z,9.81
2018-10-21T01:20:50.792Z,9.83
2018-10-21T01:21:50.769Z,9.91
2018-10-21T01:22:50.745Z,10.14
2018-10-21T01:23:50.720Z,10.03
2018-10-21T01:24:50.695Z,10.15
2018-10-21T01:25:50.672Z,10.22
2018-10-21T01:26:50.647Z,10.37
2018-10-21T01:27:50.623Z,10.37
2018-10-21T01:28:50.599Z,10.46
2018-10-21T01:29:50.574Z,10.46
2018-10-21T01:30:50.551Z,10.59
2018-10-21T01:31:50.526Z,10.66
2018-10-21T01:32:50.502Z,10.62
2018-10-21T01:33:50.481Z,10.74
2018-10-21T01:34:50.455Z,10.71
2018-10-21T01:35:50.429Z,10.77
2018-10-21T01:36:50.496Z,10.83
2018-10-21T01:37:50.427Z,10.88
2018-10-21T01:38:50.356Z,10.89
2018-10-21T01:39:50.332Z,10.92
2018-10-21T01:40:50.307Z,10.94
2018-10-21T01:41:50.283Z,10.88
2018-10-21T01:42:50.258Z,10.92
2018-10-21T01:43:50.235Z,10.94
2018-10-21T01:44:50.209Z,10.88
2018-10-21T01:45:50.184Z,10.76
2018-10-21T01:46:50.161Z,10.86
2018-10-21T01:47:50.137Z,10.86
2018-10-21T01:48:50.115Z,10.89
2018-10-21T01:49:50.088Z,10.81
2018-10-21T01:50:50.066Z,10.86
2018-10-21T01:51:50.040Z,10.88
2018-10-21T01:52:50.015Z,10.89
2018-10-21T01:53:49.991Z,10.66
2018-10-21T01:54:49.968Z,10.70
2018-10-21T01:55:49.944Z,10.71
2018-10-21T01:56:49.918Z,10.66
2018-10-21T01:57:49.896Z,10.65
2018-10-21T01:58:49.870Z,10.56
2018-10-21T01:59:49.848Z,10.52
2018-10-21T02:00:49.822Z,10.43
2018-10-21T02:01:49.799Z,10.52
2018-10-21T02:02:49.774Z,10.43
2018-10-21T02:03:49.753Z,10.40
2018-10-21T02:04:49.725Z,10.40
2018-10-21T02:05:49.704Z,10.39
2018-10-21T02:06:49.678Z,10.34
2018-10-21T02:07:49.654Z,10.28
2018-10-21T02:08:49.629Z,10.21
2018-10-21T02:09:49.605Z,10.07
2018-10-21T02:10:49.586Z,10.07
2018-10-21T02:11:49.562Z,9.97
2018-10-21T02:12:49.532Z,9.91
2018-10-21T02:13:49.509Z,9.94
2018-10-21T02:14:49.485Z,9.88
2018-10-21T02:15:49.462Z,9.82
2018-10-21T02:16:49.436Z,9.85
2018-10-21T02:17:49.415Z,9.75
2018-10-21T02:18:49.389Z,9.70
2018-10-21T02:19:49.365Z,9.75
2018-10-21T02:20:49.340Z,9.75
2018-10-21T02:21:49.321Z,9.75
2018-10-21T02:22:49.293Z,9.75
2018-10-21T02:23:49.269Z,9.64
2018-10-21T02:24:49.244Z,9.67
2018-10-21T02:25:49.220Z,9.66
2018-10-21T02:26:49.202Z,9.58
2018-10-21T02:27:49.173Z,9.66
2018-10-21T02:28:49.148Z,9.70
2018-10-21T02:29:49.125Z,9.70
2018-10-21T02:30:49.101Z,9.83
2018-10-21T02:31:49.077Z,9.96
2018-10-21T02:32:49.052Z,10.00
2018-10-21T02:33:49.033Z,10.04
2018-10-21T02:34:49.003Z,10.09
2018-10-21T02:35:48.981Z,10.18
2018-10-21T02:36:48.956Z,10.15
2018-10-21T02:37:48.933Z,10.18
2018-10-21T02:38:48.907Z,10.15
2018-10-21T02:39:48.884Z,10.14
2018-10-21T02:40:48.860Z,10.22
2018-10-21T02:41:48.835Z,10.15
2018-10-21T02:42:48.811Z,10.24
2018-10-21T02:43:48.787Z,10.25
2018-10-21T02:44:48.765Z,10.14
2018-10-21T02:45:48.738Z,10.17
2018-10-21T02:46:48.713Z,10.14
2018-10-21T02:47:48.689Z,10.18
2018-10-21T02:48:48.665Z,10.18
2018-10-21T02:49:48.641Z,10.17
2018-10-21T02:50:49.367Z,10.15
2018-10-21T02:51:48.593Z,10.17
2018-10-21T02:52:48.567Z,10.07
2018-10-21T02:53:48.543Z,10.17
2018-10-21T02:54:48.521Z,10.15
2018-10-21T02:55:48.496Z,10.17
2018-10-21T02:56:48.471Z,10.21
2018-10-21T02:57:48.446Z,10.09
2018-10-21T02:58:48.425Z,10.14
2018-10-21T02:59:48.400Z,10.07
2018-10-21T03:00:48.373Z,9.99
2018-10-21T03:01:48.349Z,10.07
2018-10-21T03:02:48.325Z,9.94
2018-10-21T03:03:48.307Z,9.91
2018-10-21T03:04:48.275Z,9.93
2018-10-21T03:05:48.252Z,9.88
2018-10-21T03:06:48.227Z,9.96
2018-10-21T03:07:48.203Z,9.82
2018-10-21T03:08:48.179Z,9.82
2018-10-21T03:09:48.153Z,9.85
2018-10-21T03:10:48.131Z,9.78
2018-10-21T03:11:48.106Z,9.68
2018-10-21T03:12:48.081Z,9.64
2018-10-21T03:13:48.059Z,9.63
2018-10-21T03:14:48.031Z,9.58
2018-10-21T03:15:48.009Z,9.56
2018-10-21T03:16:47.982Z,9.45
2018-10-21T03:17:47.958Z,9.48
2018-10-21T03:18:47.934Z,9.48
2018-10-21T03:19:47.910Z,9.32
2018-10-21T03:20:47.886Z,9.34
2018-10-21T03:21:47.860Z,9.30
2018-10-21T03:22:47.838Z,9.28
2018-10-21T03:23:47.813Z,9.25
2018-10-21T03:24:47.788Z,9.27
2018-10-21T03:25:47.764Z,9.32
2018-10-21T03:26:47.741Z,9.30
2018-10-21T03:27:47.716Z,9.34
2018-10-21T03:28:47.694Z,9.27
2018-10-21T03:29:47.665Z,9.18
2018-10-21T03:30:47.642Z,9.25
2018-10-21T03:31:47.617Z,9.18
2018-10-21T03:32:47.616Z,9.15
2018-10-21T03:33:47.631Z,9.23
2018-10-21T03:34:47.544Z,9.27
2018-10-21T03:35:47.520Z,9.12
2018-10-21T03:36:47.500Z,9.20
2018-10-21T03:37:47.471Z,9.25
2018-10-21T03:38:47.446Z,9.18
2018-10-21T03:39:47.422Z,9.25
2018-10-21T03:40:47.400Z,9.27
2018-10-21T03:41:47.375Z,9.18
2018-10-21T03:42:47.349Z,9.21
2018-10-21T03:43:47.334Z,9.24
2018-10-21T03:44:47.302Z,9.25
2018-10-21T03:45:47.276Z,9.24
2018-10-21T03:46:47.253Z,9.30
2018-10-21T03:47:47.229Z,9.25
2018-10-21T03:48:47.203Z,9.31
2018-10-21T03:49:47.178Z,9.27
2018-10-21T03:50:47.153Z,9.21
2018-10-21T03:51:47.130Z,9.34
2018-10-21T03:52:47.105Z,9.35
2018-10-21T03:53:47.081Z,9.21
2018-10-21T03:54:47.056Z,9.20
2018-10-21T03:55:47.032Z,9.18
2018-10-21T03:56:47.006Z,9.27
2018-10-21T03:57:46.981Z,9.15
2018-10-21T03:58:46.965Z,9.15
2018-10-21T03:59:46.933Z,9.15
2018-10-21T04:00:46.909Z,9.20
2018-10-21T04:01:46.886Z,9.09
2018-10-21T04:02:46.861Z,9.06
2018-10-21T04:03:46.835Z,9.05
2018-10-21T04:04:46.810Z,9.04
2018-10-21T04:05:46.787Z,9.20
2018-10-21T04:06:46.761Z,9.13
2018-10-21T04:07:46.737Z,9.25
2018-10-21T04:08:46.712Z,9.28
2018-10-21T04:09:46.687Z,9.18
2018-10-21T04:10:46.664Z,9.31
2018-10-21T04:11:46.639Z,9.38
2018-10-21T04:12:46.615Z,9.31
2018-10-21T04:13:46.590Z,9.34
2018-10-21T04:14:46.566Z,9.48
2018-10-21T04:15:46.542Z,9.34
2018-10-21T04:16:46.517Z,9.49
2018-10-21T04:17:46.495Z,9.60
2018-10-21T04:18:46.469Z,9.57
2018-10-21T04:19:46.444Z,9.60
2018-10-21T04:20:46.472Z,9.60
2018-10-21T04:21:46.395Z,9.56
2018-10-21T04:22:46.372Z,9.53
2018-10-21T04:23:46.347Z,9.57
2018-10-21T04:24:46.322Z,9.63
2018-10-21T04:25:46.299Z,9.56
2018-10-21T04:26:46.274Z,9.56
2018-10-21T04:27:46.251Z,9.57
2018-10-21T04:28:46.226Z,9.57
2018-10-21T04:29:46.201Z,9.56
2018-10-21T04:30:46.178Z,9.53
2018-10-21T04:31:46.153Z,9.57
2018-10-21T04:32:46.129Z,9.50
2018-10-21T04:33:46.104Z,9.56
2018-10-21T04:34:46.081Z,9.56
2018-10-21T04:35:46.057Z,9.53
2018-10-21T04:36:46.031Z,9.52
2018-10-21T04:37:46.007Z,9.40
2018-10-21T04:38:45.984Z,9.52
2018-10-21T04:39:45.959Z,9.43
2018-10-21T04:40:45.935Z,9.46
2018-10-21T04:41:45.909Z,9.48
2018-10-21T04:42:46.637Z,9.48
2018-10-21T04:43:45.861Z,9.49
2018-10-21T04:44:45.837Z,9.46
2018-10-21T04:45:45.812Z,9.42
2018-10-21T04:46:45.893Z,9.46
2018-10-21T04:47:45.765Z,9.39
2018-10-21T04:48:45.739Z,9.48
2018-10-21T04:49:45.714Z,9.50
2018-10-21T04:50:45.692Z,9.40
2018-10-21T04:51:45.666Z,9.45
2018-10-21T04:52:45.642Z,9.45
2018-10-21T04:53:45.627Z,9.46
2018-10-21T04:54:45.592Z,9.46
2018-10-21T04:55:45.569Z,9.45
2018-10-21T04:56:45.544Z,9.43
2018-10-21T04:57:45.520Z,9.52
2018-10-21T04:58:45.496Z,9.39
2018-10-21T04:59:45.471Z,9.39
2018-10-21T05:00:45.530Z,9.34
2018-10-21T05:01:45.422Z,9.35
2018-10-21T05:02:45.398Z,9.20
2018-10-21T05:03:45.373Z,9.24
2018-10-21T05:04:45.348Z,9.24
2018-10-21T05:05:45.324Z,9.30
2018-10-21T05:06:45.300Z,9.20
2018-10-21T05:07:45.276Z,9.15
2018-10-21T05:08:45.254Z,9.20
2018-10-21T05:09:45.227Z,9.23
2018-10-21T05:10:45.202Z,9.24
2018-10-21T05:11:45.178Z,9.15
2018-10-21T05:12:45.154Z,9.15
2018-10-21T05:13:45.133Z,9.05
2018-10-21T05:14:45.107Z,9.01
2018-10-21T05:15:45.082Z,8.94
2018-10-21T05:16:45.158Z,8.91
2018-10-21T05:17:45.032Z,8.87
2018-10-21T05:18:45.008Z,8.84
2018-10-21T05:19:44.983Z,8.93
2018-10-21T05:20:44.958Z,8.97
2018-10-21T05:21:44.933Z,8.87
2018-10-21T05:22:44.910Z,8.96
2018-10-21T05:23:44.949Z,9.01
2018-10-21T05:24:44.859Z,9.01
2018-10-21T05:25:44.835Z,9.01
2018-10-21T05:26:44.810Z,9.04
2018-10-21T05:27:44.785Z,9.02
2018-10-21T05:28:44.759Z,9.06
2018-10-21T05:29:44.736Z,8.97
2018-10-21T05:30:44.711Z,8.90
2018-10-21T05:31:44.688Z,8.96
2018-10-21T05:32:44.661Z,8.94
2018-10-21T05:33:44.638Z,8.83
2018-10-21T05:34:44.612Z,8.86
2018-10-21T05:35:44.590Z,8.72
2018-10-21T05:36:44.563Z,8.83
2018-10-21T05:37:44.570Z,8.78
2018-10-21T05:38:44.515Z,8.75
2018-10-21T05:39:44.492Z,8.75
2018-10-21T05:40:44.500Z,8.86
2018-10-21T05:41:44.438Z,8.79
2018-10-21T05:42:44.414Z,8.81
2018-10-21T05:43:44.389Z,8.83
2018-10-21T05:44:44.365Z,8.79
2018-10-21T05:45:44.338Z,8.86
2018-10-21T05:46:44.392Z,8.81
2018-10-21T05:47:44.291Z,8.87
2018-10-21T05:48:44.264Z,8.79
2018-10-21T05:49:44.240Z,8.84
2018-10-21T05:50:44.214Z,8.91
2018-10-21T05:51:44.190Z,8.94
2018-10-21T05:52:44.163Z,8.91
2018-10-21T05:53:44.139Z,8.90
2018-10-21T05:54:44.114Z,8.99
2018-10-21T05:55:44.090Z,9.01
2018-10-21T05:56:44.816Z,9.01
2018-10-21T05:57:44.046Z,9.01
2018-10-21T05:58:44.014Z,9.05
2018-10-21T05:59:43.990Z,9.10
2018-10-21T06:00:43.964Z,9.09
2018-10-21T06:01:43.940Z,9.18
2018-10-21T06:02:43.957Z,9.15
2018-10-21T06:03:43.891Z,9.04
2018-10-21T06:04:43.865Z,9.12
2018-10-21T06:05:43.840Z,9.15
2018-10-21T06:06:43.816Z,9.12
2018-10-21T06:07:43.791Z,9.16
2018-10-21T06:08:43.767Z,9.15
2018-10-21T06:09:43.742Z,9.21
2018-10-21T06:10:43.720Z,9.13
2018-10-21T06:11:43.693Z,9.20
2018-10-21T06:12:43.667Z,9.30
2018-10-21T06:13:43.645Z,9.21
2018-10-21T06:14:43.619Z,9.09
2018-10-21T06:15:43.646Z,9.13
2018-10-21T06:16:43.571Z,9.16
2018-10-21T06:17:43.547Z,9.02
2018-10-21T06:18:43.522Z,9.06
2018-10-21T06:19:43.497Z,9.16
2018-10-21T06:20:43.475Z,9.16
2018-10-21T06:21:43.449Z,9.12
2018-10-21T06:22:44.936Z,9.12
2018-10-21T06:23:43.442Z,9.27
2018-10-21T06:24:43.377Z,9.30
2018-10-21T06:25:43.350Z,9.16
2018-10-21T06:26:43.325Z,9.31
2018-10-21T06:27:43.456Z,9.24
2018-10-21T06:28:43.283Z,9.24
2018-10-21T06:29:43.253Z,9.20
2018-10-21T06:30:43.228Z,9.25
2018-10-21T06:31:43.204Z,9.32
2018-10-21T06:32:43.179Z,9.35
2018-10-21T06:33:43.243Z,9.45
2018-10-21T06:34:43.132Z,9.39
2018-10-21T06:35:43.107Z,9.42
2018-10-21T06:36:43.161Z,9.31
2018-10-21T06:37:43.057Z,9.45
2018-10-21T06:38:43.033Z,9.53
2018-10-21T06:39:43.009Z,9.45
2018-10-21T06:40:42.984Z,9.49
2018-10-21T06:41:42.964Z,9.52
2018-10-21T06:42:42.940Z,9.60
2018-10-21T06:43:42.915Z,9.43
2018-10-21T06:44:42.887Z,9.42
2018-10-21T06:45:42.915Z,9.49
2018-10-21T06:46:42.840Z,9.48
2018-10-21T06:47:42.816Z,9.34
2018-10-21T06:48:42.790Z,9.43
2018-10-21T06:49:42.766Z,9.42
2018-10-21T06:50:42.743Z,9.48
2018-10-21T06:51:42.720Z,9.46
2018-10-21T06:52:42.694Z,9.43
2018-10-21T06:53:42.671Z,9.52
2018-10-21T06:54:42.746Z,9.48
2018-10-21T06:55:44.874Z,9.46
2018-10-21T06:56:42.733Z,9.49
2018-10-21T06:57:42.680Z,9.39
2018-10-21T06:58:42.550Z,9.48
2018-10-21T06:59:42.527Z,9.50
2018-10-21T07:00:42.502Z,9.43
2018-10-21T07:01:43.979Z,9.45
2018-10-21T07:02:42.454Z,9.45
2018-10-21T07:03:42.430Z,9.50
2018-10-21T07:04:42.452Z,9.43
2018-10-21T07:05:42.381Z,9.50
2018-10-21T07:06:42.404Z,9.58
2018-10-21T07:07:43.084Z,9.43
2018-10-21T07:08:42.308Z,9.35
2018-10-21T07:09:42.284Z,9.45
2018-10-21T07:10:42.260Z,9.43
2018-10-21T07:11:42.237Z,9.46
2018-10-21T07:12:42.215Z,9.52
2018-10-21T07:13:42.189Z,9.58
2018-10-21T07:14:42.164Z,9.53
2018-10-21T07:15:42.217Z,9.64
2018-10-21T07:16:42.350Z,9.66
2018-10-21T07:17:42.092Z,9.63
2018-10-21T07:18:42.069Z,9.58
2018-10-21T07:19:42.046Z,9.61
2018-10-21T07:20:42.020Z,9.61
2018-10-21T07:21:41.996Z,9.75
2018-10-21T07:22:41.972Z,9.78
2018-10-21T07:23:42.698Z,9.66
2018-10-21T07:24:41.924Z,9.60
2018-10-21T07:25:41.902Z,9.60
2018-10-21T07:26:41.879Z,9.64
2018-10-21T07:27:41.853Z,9.70
2018-10-21T07:28:41.829Z,9.83
2018-10-21T07:29:41.804Z,9.68
2018-10-21T07:30:41.781Z,9.58
2018-10-21T07:31:41.756Z,9.61
2018-10-21T07:32:41.732Z,9.56
2018-10-21T07:33:41.709Z,9.66
2018-10-21T07:34:43.186Z,9.58
2018-10-21T07:35:41.662Z,9.63
2018-10-21T07:36:41.636Z,9.70
2018-10-21T07:37:41.613Z,9.68
2018-10-21T07:38:41.589Z,9.79
2018-10-21T07:39:41.566Z,9.70
2018-10-21T07:40:41.541Z,9.73
2018-10-21T07:41:41.517Z,9.85
2018-10-21T07:42:41.495Z,9.76
2018-10-21T07:43:41.470Z,9.81
2018-10-21T07:44:41.445Z,9.81
2018-10-21T07:45:41.424Z,9.81
2018-10-21T07:46:41.400Z,9.81
2018-10-21T07:47:41.380Z,9.89
2018-10-21T07:48:41.353Z,9.96
2018-10-21T07:49:41.327Z,9.96
2018-10-21T07:50:41.305Z,9.96
2018-10-21T07:51:41.281Z,10.00
2018-10-21T07:52:41.256Z,10.09
2018-10-21T07:53:41.232Z,10.14
2018-10-21T07:54:41.208Z,10.17
2018-10-21T07:55:41.316Z,10.12
2018-10-21T07:56:41.911Z,10.24
2018-10-21T07:57:41.137Z,10.14
2018-10-21T07:58:41.114Z,10.19
2018-10-21T07:59:41.094Z,10.04
2018-10-21T08:00:41.066Z,10.07
2018-10-21T08:01:41.043Z,9.99
2018-10-21T08:02:41.019Z,9.91
2018-10-21T08:03:40.996Z,9.93
2018-10-21T08:04:40.971Z,10.06
2018-10-21T08:05:40.947Z,10.09
2018-10-21T08:06:40.924Z,10.14
2018-10-21T08:07:41.653Z,10.15
2018-10-21T08:08:40.909Z,10.12
2018-10-21T08:09:40.854Z,10.17
2018-10-21T08:10:40.830Z,10.18
2018-10-21T08:11:40.806Z,10.25
2018-10-21T08:12:40.783Z,10.18
2018-10-21T08:13:40.758Z,10.15
2018-10-21T08:14:40.777Z,10.14
2018-10-21T08:15:40.713Z,10.15
2018-10-21T08:16:40.693Z,10.28
2018-10-21T08:17:40.666Z,10.21
2018-10-21T08:18:45.146Z,10.22
2018-10-21T08:19:40.618Z,10.33
2018-10-21T08:20:40.593Z,10.40
2018-10-21T08:21:40.570Z,10.52
2018-10-21T08:22:40.546Z,10.51
2018-10-21T08:23:40.524Z,10.59
2018-10-21T08:24:40.498Z,10.66
2018-10-21T08:25:40.477Z,10.63
2018-10-21T08:26:40.452Z,10.70
2018-10-21T08:27:40.429Z,10.86
2018-10-21T08:28:40.406Z,10.77
2018-10-21T08:29:40.382Z,10.77
2018-10-21T08:30:40.360Z,10.80
2018-10-21T08:31:40.336Z,10.73
2018-10-21T08:32:40.312Z,10.96
2018-10-21T08:33:40.288Z,10.94
2018-10-21T08:34:40.266Z,10.95
2018-10-21T08:35:40.993Z,11.01
2018-10-21T08:36:40.219Z,10.94
2018-10-21T08:37:40.196Z,11.13
2018-10-21T08:38:40.173Z,11.10
2018-10-21T08:39:40.150Z,11.10
2018-10-21T08:40:40.125Z,11.07
2018-10-21T08:41:40.104Z,11.16
2018-10-21T08:42:40.080Z,11.19
2018-10-21T08:43:40.057Z,11.29
2018-10-21T08:44:40.034Z,11.25
2018-10-21T08:45:40.011Z,11.28
2018-10-21T08:46:40.829Z,11.41
2018-10-21T08:47:39.972Z,11.47
2018-10-21T08:48:39.943Z,11.46
2018-10-21T08:49:39.918Z,11.38
2018-10-21T08:50:39.899Z,11.27
2018-10-21T08:51:39.879Z,11.32
2018-10-21T08:52:39.849Z,11.27
2018-10-21T08:53:39.826Z,11.29
2018-10-21T08:54:39.806Z,11.32
2018-10-21T08:55:39.813Z,11.38
2018-10-21T08:56:39.756Z,11.43
2018-10-21T08:57:39.734Z,11.49
2018-10-21T08:58:39.710Z,11.64
2018-10-21T08:59:39.688Z,11.64
2018-10-21T09:00:39.664Z,11.70
2018-10-21T09:01:39.641Z,11.80
2018-10-21T09:02:39.619Z,11.96
2018-10-21T09:03:39.597Z,12.13
2018-10-21T09:04:39.574Z,12.08
2018-10-21T09:05:39.550Z,12.02
2018-10-21T09:06:39.528Z,11.99
2018-10-21T09:07:39.506Z,11.99
2018-10-21T09:08:39.483Z,12.02
2018-10-21T09:09:39.460Z,11.94
2018-10-21T09:10:39.549Z,12.08
2018-10-21T09:11:39.415Z,12.09
2018-10-21T09:12:39.391Z,12.13
2018-10-21T09:13:39.369Z,12.08
2018-10-21T09:14:39.346Z,12.09
2018-10-21T09:15:39.324Z,12.06
2018-10-21T09:16:39.460Z,12.01
2018-10-21T09:17:39.278Z,12.02
2018-10-21T09:18:41.508Z,11.87
2018-10-21T09:19:39.235Z,11.87
2018-10-21T09:20:39.210Z,11.90
2018-10-21T09:21:39.189Z,11.87
2018-10-21T09:22:39.167Z,11.83
2018-10-21T09:23:39.153Z,11.86
2018-10-21T09:24:39.872Z,11.86
2018-10-21T09:25:39.101Z,11.75
2018-10-21T09:26:39.077Z,11.78
2018-10-21T09:27:39.058Z,11.87
2018-10-21T09:28:39.032Z,11.89
2018-10-21T09:29:39.008Z,11.80
2018-10-21T09:30:38.986Z,11.83
2018-10-21T09:31:38.963Z,11.70
2018-10-21T09:32:38.940Z,11.89
2018-10-21T09:33:38.918Z,11.87
2018-10-21T09:34:38.899Z,11.86
2018-10-21T09:35:38.877Z,11.97
2018-10-21T09:36:38.850Z,12.04
2018-10-21T09:37:38.829Z,12.06
2018-10-21T09:38:38.805Z,12.08
2018-10-21T09:39:38.783Z,12.01
2018-10-21T09:40:39.511Z,12.09
2018-10-21T09:41:38.739Z,12.06
2018-10-21T09:42:38.715Z,12.15
2018-10-21T09:43:38.694Z,11.97
2018-10-21T09:44:38.670Z,12.08
2018-10-21T09:45:38.648Z,12.06
2018-10-21T09:46:38.626Z,12.09
2018-10-21T09:47:38.604Z,11.90
2018-10-21T09:48:38.584Z,12.04
2018-10-21T09:49:38.558Z,12.08
2018-10-21T09:50:38.535Z,12.02
2018-10-21T09:51:38.513Z,12.11
2018-10-21T09:52:38.489Z,12.13
2018-10-21T09:53:38.468Z,12.26
2018-10-21T09:54:38.445Z,12.27
2018-10-21T09:55:38.423Z,12.19
2018-10-21T09:56:38.400Z,12.29
2018-10-21T09:57:38.377Z,12.27
2018-10-21T09:58:38.420Z,12.24
2018-10-21T09:59:38.335Z,12.27
2018-10-21T10:00:38.311Z,12.24
2018-10-21T10:01:38.289Z,12.27
2018-10-21T10:02:38.265Z,12.33
2018-10-21T10:03:38.244Z,12.38
2018-10-21T10:04:38.228Z,12.41
2018-10-21T10:05:38.200Z,12.38
2018-10-21T10:06:38.176Z,12.49
2018-10-21T10:07:38.156Z,12.38
2018-10-21T10:08:38.132Z,12.39
2018-10-21T10:09:38.108Z,12.33
2018-10-21T10:10:38.086Z,12.34
2018-10-21T10:11:38.066Z,12.33
2018-10-21T10:12:38.042Z,12.24
2018-10-21T10:13:38.019Z,12.16
2018-10-21T10:14:37.997Z,12.12
2018-10-21T10:15:37.974Z,12.13
2018-10-21T10:16:37.960Z,12.27
2018-10-21T10:17:38.001Z,12.38
2018-10-21T10:18:37.909Z,12.42
2018-10-21T10:19:37.886Z,12.23
2018-10-21T10:20:37.862Z,12.29
2018-10-21T10:21:37.842Z,12.21
2018-10-21T10:22:37.820Z,12.27
2018-10-21T10:23:37.825Z,12.38
2018-10-21T10:24:37.773Z,12.34
2018-10-21T10:25:37.750Z,12.44
2018-10-21T10:26:37.729Z,12.48
2018-10-21T10:27:37.706Z,12.46
2018-10-21T10:28:37.683Z,12.48
2018-10-21T10:29:37.661Z,12.60
2018-10-21T10:30:37.724Z,12.60
2018-10-21T10:31:37.619Z,12.54
2018-10-21T10:32:37.594Z,12.60
2018-10-21T10:33:37.572Z,12.69
2018-10-21T10:34:37.551Z,12.57
2018-10-21T10:35:37.529Z,12.57
2018-10-21T10:36:37.507Z,12.54
2018-10-21T10:37:37.484Z,12.60
2018-10-21T10:38:37.462Z,12.52
2018-10-21T10:39:37.441Z,12.60
2018-10-21T10:40:37.417Z,12.66
2018-10-21T10:41:37.449Z,12.59
2018-10-21T10:42:37.375Z,12.51
2018-10-21T10:43:37.354Z,12.49
2018-10-21T10:44:37.329Z,12.71
2018-10-21T10:45:37.311Z,12.63
2018-10-21T10:46:37.286Z,12.63
2018-10-21T10:47:37.265Z,12.77
2018-10-21T10:48:37.242Z,12.99
2018-10-21T10:49:37.224Z,13.03
2018-10-21T10:50:37.209Z,12.97
2018-10-21T10:51:37.178Z,13.02
2018-10-21T10:52:37.155Z,12.97
2018-10-21T10:53:37.135Z,12.99
2018-10-21T10:54:37.112Z,13.00
2018-10-21T10:55:37.091Z,13.03
2018-10-21T10:56:37.068Z,12.70
2018-10-21T10:57:37.047Z,12.78
2018-10-21T10:58:37.027Z,12.92
2018-10-21T10:59:37.130Z,12.87
2018-10-21T11:00:36.984Z,12.97
2018-10-21T11:01:36.966Z,12.95
2018-10-21T11:02:36.941Z,12.92
2018-10-21T11:03:36.919Z,13.00
2018-10-21T11:04:38.401Z,12.97
2018-10-21T11:05:36.878Z,12.99
2018-10-21T11:06:36.859Z,13.06
2018-10-21T11:07:36.837Z,13.02
2018-10-21T11:08:36.813Z,13.09
2018-10-21T11:09:36.791Z,13.06
2018-10-21T11:10:39.774Z,13.06
2018-10-21T11:11:36.751Z,13.14
2018-10-21T11:12:36.729Z,13.40
2018-10-21T11:13:36.706Z,13.59
2018-10-21T11:14:36.750Z,13.56
2018-10-21T11:15:36.664Z,13.63
2018-10-21T11:16:37.393Z,13.58
2018-10-21T11:17:36.621Z,13.56
2018-10-21T11:18:36.600Z,13.58
2018-10-21T11:19:36.580Z,13.47
2018-10-21T11:20:36.559Z,13.40
2018-10-21T11:21:36.569Z,13.52
2018-10-21T11:22:36.588Z,13.46
2018-10-21T11:23:36.495Z,13.46
2018-10-21T11:24:36.474Z,13.36
2018-10-21T11:25:36.452Z,13.49
2018-10-21T11:26:36.430Z,13.49
2018-10-21T11:27:36.410Z,13.44
2018-10-21T11:28:36.389Z,13.71
2018-10-21T11:29:36.368Z,13.94
2018-10-21T11:30:36.346Z,14.14
2018-10-21T11:31:36.326Z,14.09
2018-10-21T11:32:36.304Z,14.16
2018-10-21T11:33:36.287Z,14.13
2018-10-21T11:34:36.262Z,14.09
2018-10-21T11:35:36.243Z,14.16
2018-10-21T11:36:36.236Z,14.06
2018-10-21T11:37:36.216Z,14.10
2018-10-21T11:38:36.177Z,14.10
2018-10-21T11:39:36.156Z,14.14
2018-10-21T11:40:36.133Z,14.13
2018-10-21T11:41:36.113Z,13.87
2018-10-21T11:42:36.092Z,14.01
2018-10-21T11:43:36.071Z,14.16
2018-10-21T11:44:36.049Z,14.16
2018-10-21T11:45:36.093Z,14.24
2018-10-21T11:46:36.182Z,14.19
2018-10-21T11:47:35.991Z,14.24
2018-10-21T11:48:38.218Z,14.02
2018-10-21T11:49:35.945Z,14.02
2018-10-21T11:50:35.924Z,13.94
2018-10-21T11:51:35.904Z,13.71
2018-10-21T11:52:35.913Z,13.74
2018-10-21T11:53:35.860Z,13.61
2018-10-21T11:54:36.589Z,13.65
2018-10-21T11:55:35.817Z,13.74
2018-10-21T11:56:35.795Z,13.74
2018-10-21T11:57:35.775Z,13.73
2018-10-21T11:58:35.754Z,13.73
2018-10-21T11:59:35.731Z,13.74
2018-10-21T12:00:35.709Z,13.71
2018-10-21T12:01:35.689Z,13.62
2018-10-21T12:02:35.667Z,13.83
2018-10-21T12:03:35.645Z,13.88
2018-10-21T12:04:35.624Z,14.04
2018-10-21T12:05:35.601Z,14.09
2018-10-21T12:06:35.585Z,14.32
2018-10-21T12:07:35.560Z,14.42
2018-10-21T12:08:35.536Z,14.32
2018-10-21T12:09:35.515Z,14.37
2018-10-21T12:10:35.493Z,14.24
2018-10-21T12:11:35.472Z,14.29
2018-10-21T12:12:35.450Z,14.38
2018-10-21T12:13:35.431Z,14.43
2018-10-21T12:14:35.409Z,14.34
2018-10-21T12:15:35.385Z,14.52
2018-10-21T12:16:36.866Z,14.50
2018-10-21T12:17:35.342Z,14.62
2018-10-21T12:18:35.321Z,14.64
2018-10-21T12:19:35.299Z,14.65
2018-10-21T12:20:35.280Z,14.72
2018-10-21T12:21:35.255Z,14.68
2018-10-21T12:22:35.309Z,14.83
2018-10-21T12:23:35.259Z,14.83
2018-10-21T12:24:35.190Z,14.90
2018-10-21T12:25:35.282Z,14.93
2018-10-21T12:26:35.147Z,14.94
2018-10-21T12:27:35.125Z,14.91
2018-10-21T12:28:35.107Z,14.84
2018-10-21T12:29:35.088Z,14.84
2018-10-21T12:30:35.062Z,14.94
2018-10-21T12:31:35.041Z,14.99
2018-10-21T12:32:35.024Z,14.99
2018-10-21T12:33:34.997Z,15.05
2018-10-21T12:34:34.974Z,15.01
2018-10-21T12:35:34.958Z,15.06
2018-10-21T12:36:34.931Z,15.09
2018-10-21T12:37:34.915Z,15.03
2018-10-21T12:38:34.892Z,15.19
2018-10-21T12:39:34.868Z,15.24
2018-10-21T12:40:34.848Z,15.46
2018-10-21T12:41:34.825Z,15.45
2018-10-21T12:42:34.804Z,15.41
2018-10-21T12:43:34.781Z,15.43
2018-10-21T12:44:34.760Z,15.45
2018-10-21T12:45:34.858Z,15.45
2018-10-21T12:46:34.717Z,15.30
2018-10-21T12:47:34.700Z,15.49
2018-10-21T12:48:34.675Z,15.39
2018-10-21T12:49:34.657Z,15.30
2018-10-21T12:50:34.632Z,15.27
2018-10-21T12:51:34.611Z,15.21
2018-10-21T12:52:34.590Z,15.13
2018-10-21T12:53:34.568Z,15.30
2018-10-21T12:54:34.680Z,15.24
2018-10-21T12:55:34.525Z,15.49
2018-10-21T12:56:34.504Z,15.46
2018-10-21T12:57:34.485Z,15.49
2018-10-21T12:58:34.463Z,15.46
2018-10-21T12:59:35.191Z,15.51
2018-10-21T13:00:34.422Z,15.59
2018-10-21T13:01:34.398Z,15.51
2018-10-21T13:02:34.381Z,15.33
2018-10-21T13:03:34.357Z,15.52